createdAt,value
2022-08-25T12:46:38.482Z,4.20
2022-08-25T12:48:57.132Z,4.43
2022-08-25T12:51:02.633Z,4.88
2022-08-25T12:53:12.508Z,3.45
2022-08-25T12:55:15.469Z,3.17
2022-08-25T12:57:35.113Z,3.30
2022-08-25T12:59:43.680Z,4.90
2022-08-25T13:02:09.057Z,5.05
2022-08-25T13:05:02.685Z,2.78
2022-08-25T13:07:25.578Z,5.03
2022-08-25T13:10:01.844Z,4.28
2022-08-25T13:12:22.999Z,3.25
2022-08-25T13:14:37.695Z,5.28
2022-08-25T13:16:40.896Z,5.72
2022-08-25T13:18:44.893Z,3.97
2022-08-25T13:21:02.776Z,4.03
2022-08-25T13:23:05.438Z,4.38
2022-08-25T13:25:15.538Z,3.47
2022-08-25T13:27:25.055Z,4.05
2022-08-25T13:29:29.887Z,3.30
2022-08-25T13:31:53.858Z,6.47
2022-08-25T13:34:02.225Z,5.32
2022-08-25T13:36:23.033Z,4.47
2022-08-25T13:38:27.932Z,3.30
2022-08-25T13:40:36.501Z,5.20
2022-08-25T13:42:42.808Z,5.85
2022-08-25T13:44:52.012Z,6.28
2022-08-25T13:47:18.423Z,4.15
2022-08-25T13:49:27.963Z,4.00
2022-08-25T13:51:31.900Z,4.22
2022-08-25T13:53:34.727Z,4.03
2022-08-25T13:55:51.106Z,5.88
2022-08-25T13:57:55.138Z,5.25
2022-08-25T14:00:03.814Z,3.30
2022-08-25T14:02:07.628Z,6.45
2022-08-25T14:04:32.517Z,3.13
2022-08-25T14:06:35.299Z,6.30
2022-08-25T14:08:41.525Z,5.75
2022-08-25T14:10:45.884Z,3.53
2022-08-25T14:12:49.707Z,3.83
2022-08-25T14:14:59.738Z,4.05
2022-08-25T14:17:12.124Z,3.90
2022-08-25T14:19:25.354Z,4.30
2022-08-25T14:21:32.035Z,5.72
2022-08-25T14:23:39.199Z,4.50
2022-08-25T14:25:42.471Z,3.38
2022-08-25T14:28:06.485Z,5.68
2022-08-25T14:30:10.642Z,4.85
2022-08-25T14:32:14.868Z,3.42
2022-08-25T14:34:20.395Z,3.45
2022-08-25T14:36:23.345Z,3.97
2022-08-25T14:38:27.375Z,6.88
2022-08-25T14:40:34.200Z,5.35
2022-08-25T14:42:37.075Z,5.22
2022-08-25T14:44:40.392Z,4.07
2022-08-25T14:46:46.861Z,4.38
2022-08-25T14:48:55.501Z,5.07
2022-08-25T14:51:00.492Z,5.10
2022-08-25T14:53:04.205Z,5.20
2022-08-25T14:55:10.138Z,2.25
2022-08-25T14:57:13.157Z,10.55
2022-08-25T14:59:15.955Z,3.00
2022-08-25T15:01:29.629Z,4.10
2022-08-25T15:03:35.100Z,2.78
2022-08-25T15:05:37.933Z,4.50
2022-08-25T15:07:58.239Z,7.03
2022-08-25T15:10:01.349Z,4.45
2022-08-25T15:12:05.542Z,5.63
2022-08-25T15:14:10.747Z,3.97
2022-08-25T15:16:16.762Z,3.58
2022-08-25T15:18:24.094Z,2.55
2022-08-25T15:20:26.671Z,6.20
2022-08-25T15:22:29.237Z,2.53
2022-08-25T15:24:37.695Z,2.50
2022-08-25T15:26:44.706Z,2.75
2022-08-25T15:28:51.205Z,6.03
2022-08-25T15:30:53.830Z,5.63
2022-08-25T15:32:56.412Z,2.78
2022-08-25T15:34:59.948Z,5.47
2022-08-25T15:37:08.819Z,2.50
2022-08-25T15:39:12.215Z,5.72
2022-08-25T15:41:15.410Z,3.03
2022-08-25T15:43:18.119Z,3.67
2022-08-25T15:45:22.046Z,4.32
2022-08-25T15:47:27.659Z,2.60
2022-08-25T15:49:33.137Z,2.80
2022-08-25T15:51:36.230Z,5.22
2022-08-25T15:53:39.514Z,3.47
2022-08-25T15:55:42.788Z,2.80
2022-08-25T15:57:47.382Z,5.53
2022-08-25T15:59:53.311Z,6.72
2022-08-25T16:02:00.869Z,4.05
2022-08-25T16:04:03.898Z,5.43
2022-08-25T16:06:08.421Z,6.82
2022-08-25T16:08:19.391Z,4.93
2022-08-25T16:10:22.483Z,3.72
2022-08-25T16:12:25.749Z,5.82
2022-08-25T16:14:30.620Z,3.15
2022-08-25T16:16:33.790Z,3.47
2022-08-25T16:18:38.344Z,4.18
2022-08-25T16:20:44.656Z,4.30
2022-08-25T16:22:47.653Z,4.32
2022-08-25T16:24:50.408Z,3.67
2022-08-25T16:26:56.035Z,5.10
2022-08-25T16:28:59.447Z,3.38
2022-08-25T16:31:02.758Z,5.32
2022-08-25T16:33:06.341Z,4.25
2022-08-25T16:35:13.001Z,3.67
2022-08-25T16:37:15.664Z,6.95
2022-08-25T16:39:18.287Z,3.97
2022-08-25T16:41:22.953Z,5.35
2022-08-25T16:43:25.537Z,15.27
2022-08-25T16:45:28.367Z,5.82
2022-08-25T16:47:37.742Z,7.60
2022-08-25T16:49:41.256Z,9.43
2022-08-25T16:51:45.201Z,3.35
2022-08-25T16:54:08.452Z,5.03
2022-08-25T16:56:11.589Z,3.83
2022-08-25T16:58:14.301Z,5.47
2022-08-25T17:00:21.742Z,5.07
2022-08-25T17:02:24.353Z,6.35
2022-08-25T17:04:32.207Z,3.55
2022-08-25T17:06:37.784Z,3.45
2022-08-25T17:08:42.046Z,4.65
2022-08-25T17:10:46.416Z,5.45
2022-08-25T17:12:49.368Z,5.40
2022-08-25T17:14:52.452Z,5.35
2022-08-25T17:16:55.533Z,3.40
2022-08-25T17:19:03.908Z,5.70
2022-08-25T17:21:09.597Z,7.70
2022-08-25T17:23:13.924Z,5.35
2022-08-25T17:25:18.432Z,5.13
2022-08-25T17:27:23.339Z,3.15
2022-08-25T17:29:26.205Z,4.20
2022-08-25T17:31:30.746Z,5.00
2022-08-25T17:33:33.810Z,5.03
2022-08-25T17:35:39.886Z,5.45
2022-08-25T17:37:42.537Z,3.88
2022-08-25T17:39:45.143Z,5.22
2022-08-25T17:41:49.763Z,4.32
2022-08-25T17:43:52.595Z,4.20
2022-08-25T17:45:57.038Z,3.70
2022-08-25T17:48:00.163Z,4.80
2022-08-25T17:50:03.073Z,5.07
2022-08-25T17:52:06.543Z,4.05
2022-08-25T17:54:09.151Z,4.07
2022-08-25T17:56:14.619Z,4.22
2022-08-25T17:58:18.554Z,5.10
2022-08-25T18:00:22.728Z,4.95
2022-08-25T18:02:26.628Z,9.48
2022-08-25T18:04:31.022Z,5.13
2022-08-25T18:06:33.627Z,5.43
2022-08-25T18:08:36.285Z,5.47
2022-08-25T18:10:40.659Z,8.27
2022-08-25T18:12:44.084Z,3.65
2022-08-25T18:14:49.323Z,4.88
2022-08-25T18:16:52.654Z,5.63
2022-08-25T18:18:57.181Z,7.60
2022-08-25T18:20:59.830Z,14.70
2022-08-25T18:23:02.472Z,5.80
2022-08-25T18:25:08.741Z,8.68
2022-08-25T18:27:13.567Z,7.80
2022-08-25T18:29:16.767Z,9.00
2022-08-25T18:31:21.506Z,4.45
2022-08-25T18:33:24.332Z,6.50
2022-08-25T18:35:27.101Z,8.55
2022-08-25T18:37:47.415Z,5.53
2022-08-25T18:40:08.919Z,5.88
2022-08-25T18:42:14.116Z,8.18
2022-08-25T18:44:17.027Z,11.10
2022-08-25T18:46:22.589Z,6.55
2022-08-25T18:48:26.706Z,8.73
2022-08-25T18:50:36.594Z,7.32
2022-08-25T18:52:39.208Z,7.30
2022-08-25T18:54:41.898Z,8.48
2022-08-25T18:56:44.625Z,8.70
2022-08-25T18:58:47.675Z,7.70
2022-08-25T19:00:50.400Z,9.85
2022-08-25T19:02:57.520Z,13.00
2022-08-25T19:05:04.757Z,10.98
2022-08-25T19:07:12.095Z,6.60
2022-08-25T19:09:15.121Z,8.32
2022-08-25T19:11:22.229Z,10.75
2022-08-25T19:13:25.390Z,8.63
2022-08-25T19:15:28.719Z,13.82
2022-08-25T19:17:37.478Z,7.57
2022-08-25T19:19:41.959Z,12.43
2022-08-25T19:21:45.112Z,9.95
2022-08-25T19:23:51.347Z,15.82
2022-08-25T19:25:54.956Z,13.70
2022-08-25T19:28:00.510Z,11.93
2022-08-25T19:30:05.772Z,11.77
2022-08-25T19:32:08.892Z,9.18
2022-08-25T19:34:19.200Z,13.65
2022-08-25T19:36:27.997Z,8.57
2022-08-25T19:38:34.073Z,8.43
2022-08-25T19:40:38.764Z,6.60
2022-08-25T19:42:41.529Z,8.55
2022-08-25T19:44:44.140Z,8.50
2022-08-25T19:46:47.497Z,8.30
2022-08-25T19:48:53.339Z,11.73
2022-08-25T19:50:56.319Z,9.38
2022-08-25T19:53:00.682Z,16.33
2022-08-25T19:55:04.520Z,8.18
2022-08-25T19:57:11.052Z,8.35
2022-08-25T19:59:17.812Z,9.57
2022-08-25T20:01:20.549Z,14.02
2022-08-25T20:03:23.293Z,6.95
2022-08-25T20:05:25.897Z,9.45
2022-08-25T20:07:31.177Z,9.02
2022-08-25T20:09:38.960Z,11.70
2022-08-25T20:11:43.088Z,6.80
2022-08-25T20:13:45.674Z,10.80
2022-08-25T20:15:51.689Z,10.02
2022-08-25T20:18:00.641Z,12.48
2022-08-25T20:20:09.319Z,7.38
2022-08-25T20:22:17.404Z,11.30
2022-08-25T20:24:38.342Z,9.57
2022-08-25T20:26:43.186Z,8.65
2022-08-25T20:28:45.829Z,8.43
2022-08-25T20:30:48.468Z,9.07
2022-08-25T20:32:52.448Z,7.10
2022-08-25T20:34:55.824Z,8.75
2022-08-25T20:36:58.818Z,7.38
2022-08-25T20:39:01.493Z,10.82
2022-08-25T20:41:04.118Z,9.23
2022-08-25T20:43:11.997Z,8.93
2022-08-25T20:45:16.937Z,10.73
2022-08-25T20:47:20.945Z,9.98
2022-08-25T20:49:26.754Z,9.50
2022-08-25T20:51:29.571Z,8.32
2022-08-25T20:53:34.827Z,8.98
2022-08-25T20:55:38.310Z,9.85
2022-08-25T20:57:45.116Z,8.68
2022-08-25T20:59:49.348Z,9.68
2022-08-25T21:01:52.654Z,8.98
2022-08-25T21:03:55.317Z,12.02
2022-08-25T21:05:57.892Z,8.93
2022-08-25T21:08:01.250Z,8.88
2022-08-25T21:10:07.204Z,8.98
2022-08-25T21:12:13.868Z,10.10
2022-08-25T21:14:17.483Z,8.13
2022-08-25T21:16:23.780Z,12.32
2022-08-25T21:18:31.442Z,11.25
2022-08-25T21:20:35.783Z,9.70
2022-08-25T21:22:39.205Z,8.57
2022-08-25T21:24:41.791Z,10.40
2022-08-25T21:26:49.671Z,10.20
2022-08-25T21:28:53.443Z,7.10
2022-08-25T21:30:56.568Z,9.75
2022-08-25T21:33:00.543Z,7.88
2022-08-25T21:35:03.571Z,11.70
2022-08-25T21:37:11.651Z,10.27
2022-08-25T21:39:15.437Z,8.55
2022-08-25T21:41:20.994Z,9.88
2022-08-25T21:43:23.632Z,9.50
2022-08-25T21:45:26.261Z,10.90
2022-08-25T21:47:42.112Z,9.30
2022-08-25T21:49:46.075Z,10.35
2022-08-25T21:51:59.381Z,10.57
2022-08-25T21:54:11.838Z,9.50
2022-08-25T21:56:17.156Z,11.25
2022-08-25T21:58:22.522Z,9.80
2022-08-25T22:00:25.994Z,7.45
2022-08-25T22:02:28.603Z,9.60
2022-08-25T22:04:32.407Z,9.75
2022-08-25T22:06:37.082Z,7.40
2022-08-25T22:08:41.215Z,9.10
2022-08-25T22:10:44.636Z,8.70
2022-08-25T22:12:48.526Z,10.75
2022-08-25T22:14:51.305Z,10.15
2022-08-25T22:16:54.087Z,8.38
2022-08-25T22:18:57.101Z,7.80
2022-08-25T22:21:00.755Z,11.40
2022-08-25T22:23:20.111Z,7.07
2022-08-25T22:25:23.958Z,7.03
2022-08-25T22:27:28.513Z,8.75
2022-08-25T22:29:32.774Z,7.57
2022-08-25T22:31:35.895Z,7.78
2022-08-25T22:33:40.532Z,8.73
2022-08-25T22:35:44.384Z,10.32
2022-08-25T22:37:47.617Z,10.85
2022-08-25T22:39:51.585Z,8.30
2022-08-25T22:41:55.494Z,7.13
2022-08-25T22:43:58.875Z,12.65
2022-08-25T22:46:02.812Z,9.20
2022-08-25T22:48:07.342Z,7.35
2022-08-25T22:50:10.884Z,10.07
2022-08-25T22:52:13.607Z,8.60
2022-08-25T22:54:16.217Z,10.43
2022-08-25T22:56:29.614Z,7.05
2022-08-25T22:58:32.607Z,7.22
2022-08-25T23:00:39.896Z,9.38
2022-08-25T23:02:43.499Z,7.95
2022-08-25T23:04:46.147Z,8.20
2022-08-25T23:06:49.173Z,8.15
2022-08-25T23:08:53.699Z,6.43
2022-08-25T23:10:57.197Z,8.70
2022-08-25T23:13:01.935Z,9.57
2022-08-25T23:15:14.110Z,7.63
2022-08-25T23:17:16.792Z,6.78
2022-08-25T23:19:19.860Z,9.20
2022-08-25T23:21:40.978Z,6.88
2022-08-25T23:23:45.009Z,7.93
2022-08-25T23:25:47.837Z,9.15
2022-08-25T23:27:50.468Z,8.68
2022-08-25T23:29:55.633Z,6.43
2022-08-25T23:31:59.868Z,9.88
2022-08-25T23:34:02.875Z,7.57
2022-08-25T23:36:10.559Z,7.18
2022-08-25T23:38:13.782Z,11.02
2022-08-25T23:40:19.128Z,10.43
2022-08-25T23:42:22.182Z,9.68
2022-08-25T23:44:25.687Z,8.07
2022-08-25T23:46:30.026Z,9.65
2022-08-25T23:48:33.494Z,13.48
2022-08-25T23:50:40.842Z,7.68
2022-08-25T23:52:43.635Z,7.70
2022-08-25T23:54:47.033Z,7.43
2022-08-25T23:56:51.693Z,9.20
2022-08-25T23:58:55.129Z,8.70
